Time;durP1;ratioP1;P1;durP2;ratioP2;P2;SDS_P1;SDS_P2;PMS_P1;PMS_P2;Temp;Humidity;BMP_temperature;BMP_pressure;BME280_temperature;BME280_humidity;BME280_pressure;Samples;Min_cycle;Max_cycle;Signal;HPM_P1;HPM_P2
2023/04/22 00:00:53;;;;;;;21.02;11.27;;;;;;;8.14;53.13;100095.56;30976366;28;104101;-65
2023/04/22 00:15:54;;;;;;;58.50;19.60;;;;;;;7.88;53.25;100089.44;30974179;28;97385;-65
2023/04/22 00:30:54;;;;;;;42.80;17.17;;;;;;;7.69;53.73;100095.75;30992642;28;97474;-64
2023/04/22 00:45:56;;;;;;;74.28;25.48;;;;;;;7.41;54.19;100088.75;30993799;28;97455;-64
2023/04/22 01:00:57;;;;;;;133.00;42.70;;;;;;;7.15;55.08;100098.41;30992432;28;97168;-64
2023/04/22 01:16:00;;;;;;;24.00;13.03;;;;;;;7.13;56.39;100106.50;30991877;28;97125;-65
2023/04/22 01:31:01;;;;;;;42.60;17.83;;;;;;;7.05;56.09;100099.34;30904361;28;97644;-63
2023/04/22 01:46:02;;;;;;;47.67;19.75;;;;;;;6.90;56.85;100095.50;30854768;28;97692;-64
2023/04/22 02:01:03;;;;;;;42.33;17.63;;;;;;;6.78;57.48;100086.94;30990881;28;98602;-63
2023/04/22 02:16:04;;;;;;;29.00;14.63;;;;;;;6.62;58.81;100069.06;31108523;28;98470;-62
2023/04/22 02:31:04;;;;;;;39.73;17.43;;;;;;;6.46;59.39;100063.56;31108442;28;96891;-62
2023/04/22 02:46:05;;;;;;;27.50;13.13;;;;;;;6.20;59.77;100058.94;31105366;28;110083;-62
2023/04/22 03:01:05;;;;;;;28.38;13.63;;;;;;;6.04;60.56;100055.09;31105532;28;98828;-63
2023/04/22 03:16:06;;;;;;;24.17;12.77;;;;;;;5.87;61.24;100051.34;31103508;28;106165;-63
2023/04/22 03:31:06;;;;;;;28.55;14.40;;;;;;;5.72;61.82;100055.44;31103048;28;97107;-62
2023/04/22 03:46:07;;;;;;;27.35;13.55;;;;;;;5.63;62.40;100048.34;31100057;28;97166;-61
2023/04/22 04:01:07;;;;;;;30.10;15.35;;;;;;;5.63;62.99;100038.63;31111162;28;96726;-62
2023/04/22 04:16:08;;;;;;;27.13;13.60;;;;;;;5.74;63.11;100037.59;31119209;28;96665;-62
2023/04/22 04:31:09;;;;;;;25.58;12.82;;;;;;;5.96;63.39;100039.09;31117115;28;96780;-63
2023/04/22 04:46:09;;;;;;;18.42;11.82;;;;;;;6.31;64.17;100040.22;31116002;28;96694;-63
2023/04/22 05:01:09;;;;;;;18.08;11.60;;;;;;;6.88;64.01;100053.28;31115619;28;96976;-62
2023/04/22 05:16:10;;;;;;;17.45;11.93;;;;;;;7.54;63.44;100058.34;31112572;28;112509;-62
2023/04/22 05:31:10;;;;;;;21.73;11.88;;;;;;;8.36;62.13;100068.66;31111403;28;96688;-62
2023/04/22 05:46:11;;;;;;;18.52;12.30;;;;;;;9.36;60.98;100066.09;31110853;28;104728;-61
2023/04/22 06:01:11;;;;;;;19.60;9.93;;;;;;;10.47;59.08;100056.66;31108162;28;96656;-63
2023/04/22 06:16:12;;;;;;;15.45;10.27;;;;;;;11.60;56.80;100066.94;31106577;28;96649;-62
2023/04/22 06:31:12;;;;;;;15.45;9.95;;;;;;;12.33;54.10;100072.59;31105893;28;96949;-62
2023/04/22 06:46:13;;;;;;;17.13;9.73;;;;;;;13.14;52.34;100069.84;31103584;28;97102;-63
2023/04/22 07:01:13;;;;;;;19.23;10.73;;;;;;;13.58;49.74;100076.03;31103666;28;96771;-62
2023/04/22 07:16:13;;;;;;;12.52;9.07;;;;;;;14.59;48.41;100066.00;31101036;28;115066;-63
2023/04/22 07:31:14;;;;;;;15.13;9.38;;;;;;;16.04;45.42;100071.81;31098086;28;96755;-62
2023/04/22 07:46:14;;;;;;;16.52;11.10;;;;;;;16.98;41.93;100078.78;31098963;28;96791;-63
2023/04/22 08:01:14;;;;;;;17.10;10.00;;;;;;;17.17;41.15;100069.75;31097283;28;96722;-62
2023/04/22 08:16:15;;;;;;;15.98;10.82;;;;;;;18.71;39.90;100064.81;31096684;28;107823;-64
2023/04/22 08:31:15;;;;;;;12.18;9.27;;;;;;;20.32;37.13;100057.75;31094076;28;97445;-63
2023/04/22 08:46:18;;;;;;;13.60;7.75;;;;;;;21.35;33.83;100048.91;31102451;28;106860;-63
2023/04/22 09:01:21;;;;;;;12.87;9.10;;;;;;;22.84;31.50;100052.91;31114398;28;96918;-64
2023/04/22 09:16:22;;;;;;;12.63;8.20;;;;;;;24.51;29.18;100060.16;31112631;28;96824;-64
2023/04/22 09:31:23;;;;;;;14.00;6.25;;;;;;;38.15;15.73;100052.31;31112662;28;96947;-64
2023/04/22 09:46:25;;;;;;;6.40;3.97;;;;;;;42.47;10.58;100036.78;31109127;28;97452;-64
2023/04/22 10:01:39;;;;;;;6.03;3.77;;;;;;;44.20;8.31;100023.91;31106460;28;97275;-64
2023/04/22 10:16:43;;;;;;;6.20;3.90;;;;;;;41.91;8.17;100014.44;31105997;28;96653;-63
2023/04/22 10:32:04;;;;;;;5.33;3.80;;;;;;;35.11;11.58;100002.00;31105409;28;98855;-65
2023/04/22 10:47:05;;;;;;;4.30;3.10;;;;;;;31.14;13.47;100006.59;31102919;28;97584;-63
2023/04/22 11:02:06;;;;;;;5.10;3.42;;;;;;;26.83;16.90;99991.72;31102734;28;99251;-63
2023/04/22 11:17:08;;;;;;;5.47;3.33;;;;;;;26.91;17.24;99955.59;31100938;28;97460;-62
2023/04/22 11:32:10;;;;;;;7.88;4.68;;;;;;;26.84;18.07;99968.78;31100149;28;97415;-64
2023/04/22 11:47:11;;;;;;;6.80;3.67;;;;;;;26.32;18.81;99947.22;31097968;28;96623;-64
2023/04/22 12:02:11;;;;;;;6.70;3.90;;;;;;;25.77;19.27;99946.34;31079313;28;99076;-64
2023/04/22 12:17:12;;;;;;;5.38;3.95;;;;;;;24.68;20.02;99926.50;31101770;28;111120;-64
2023/04/22 12:32:12;;;;;;;6.38;3.38;;;;;;;23.97;20.91;99909.69;31118014;28;98476;-64
2023/04/22 12:47:12;;;;;;;5.82;3.50;;;;;;;24.13;21.12;99905.13;31114671;28;114632;-64
2023/04/22 13:02:13;;;;;;;;;;;;;;;24.11;21.17;99868.38;31116320;28;96670;-65
2023/04/22 13:17:13;;;;;;;7.57;3.20;;;;;;;22.93;22.46;99861.22;31114704;28;97320;-63
2023/04/22 13:32:14;;;;;;;4.47;2.78;;;;;;;22.95;22.57;99848.22;31111532;28;96779;-64
2023/04/22 13:47:14;;;;;;;6.03;3.30;;;;;;;22.59;23.23;99849.81;31110345;28;97000;-64
2023/04/22 14:02:14;;;;;;;5.35;3.25;;;;;;;22.28;23.76;99831.34;31111579;28;97326;-64
2023/04/22 14:17:15;;;;;;;7.47;3.80;;;;;;;21.76;24.72;99821.00;31108339;28;97809;-64
2023/04/22 14:32:15;;;;;;;5.83;3.60;;;;;;;21.35;25.60;99813.19;31106868;28;96683;-63
2023/04/22 14:47:15;;;;;;;4.13;2.87;;;;;;;20.62;26.40;99800.44;31103740;28;97481;-62
2023/04/22 15:02:16;;;;;;;6.67;3.17;;;;;;;20.20;26.62;99784.63;31101931;28;111859;-61
2023/04/22 15:17:17;;;;;;;5.97;3.55;;;;;;;20.01;27.28;99775.06;31102072;28;96870;-64
2023/04/22 15:32:17;;;;;;;4.83;3.00;;;;;;;19.72;28.27;99772.34;31101876;28;97008;-64
2023/04/22 15:47:18;;;;;;;7.38;3.50;;;;;;;19.62;29.12;99760.28;31097337;28;103455;-64
2023/04/22 16:02:19;;;;;;;6.28;3.80;;;;;;;19.49;30.00;99749.78;31139249;28;96773;-63
2023/04/22 16:17:19;;;;;;;8.45;3.70;;;;;;;19.26;30.40;99754.16;31137457;28;97642;-63
2023/04/22 16:32:20;;;;;;;6.97;3.85;;;;;;;18.94;30.28;99734.84;31137423;28;96822;-63
2023/04/22 16:47:20;;;;;;;6.18;4.03;;;;;;;18.64;30.71;99721.47;31134763;28;96763;-62
2023/04/22 17:02:20;;;;;;;9.85;4.63;;;;;;;18.31;30.95;99720.97;31130805;28;96677;-64
2023/04/22 17:17:21;;;;;;;7.75;4.78;;;;;;;17.97;31.22;99703.69;31113231;28;96678;-64
2023/04/22 17:32:21;;;;;;;9.30;5.15;;;;;;;17.48;32.18;99703.75;31112724;28;96678;-63
2023/04/22 17:47:22;;;;;;;8.98;5.50;;;;;;;17.00;33.14;99699.97;31108780;28;96625;-63
2023/04/22 18:02:24;;;;;;;11.13;6.20;;;;;;;16.41;34.60;99708.41;31108481;28;96711;-62
2023/04/22 18:17:24;;;;;;;13.00;6.80;;;;;;;15.93;36.25;99715.19;31105875;28;96606;-62
2023/04/22 18:32:24;;;;;;;17.27;9.20;;;;;;;15.48;37.28;99721.38;31106592;28;96680;-62
2023/04/22 18:47:25;;;;;;;19.15;11.18;;;;;;;15.01;38.65;99729.63;31103373;28;96748;-64
2023/04/22 19:02:26;;;;;;;18.45;10.13;;;;;;;14.55;40.39;99720.59;31102447;28;97274;-65
2023/04/22 19:17:27;;;;;;;28.27;12.13;;;;;;;14.25;41.62;99720.19;31100348;28;97165;-62
2023/04/22 19:32:27;;;;;;;31.73;20.10;;;;;;;13.87;43.00;99726.97;31100520;28;96690;-64
2023/04/22 19:47:28;;;;;;;36.50;25.35;;;;;;;13.39;44.01;99710.16;31098197;28;97030;-61
2023/04/22 20:02:29;;;;;;;35.72;21.52;;;;;;;13.00;45.42;99707.91;31097514;28;96995;-63
2023/04/22 20:17:30;;;;;;;35.35;21.65;;;;;;;12.69;46.86;99701.13;31096784;28;97352;-63
2023/04/22 20:32:30;;;;;;;42.40;24.33;;;;;;;12.43;47.19;99707.13;31093496;28;97154;-62
2023/04/22 20:47:31;;;;;;;51.75;30.13;;;;;;;12.08;48.52;99704.38;31110960;28;97138;-62
2023/04/22 21:02:33;;;;;;;35.85;25.65;;;;;;;11.78;49.43;99703.66;31115596;28;96684;-63
2023/04/22 21:17:34;;;;;;;33.97;25.07;;;;;;;11.56;50.33;99697.47;31116335;28;96955;-64
2023/04/22 21:32:39;;;;;;;35.90;24.77;;;;;;;11.27;50.75;99702.69;31112056;28;96982;-64
2023/04/22 21:47:39;;;;;;;34.43;20.63;;;;;;;11.13;51.22;99698.22;31111016;28;96881;-63
2023/04/22 22:02:41;;;;;;;35.65;22.33;;;;;;;10.93;52.09;99692.63;31111739;28;96723;-62
2023/04/22 22:17:43;;;;;;;32.40;21.60;;;;;;;10.65;52.81;99695.94;31110513;28;97433;-64
2023/04/22 22:32:43;;;;;;;39.70;23.63;;;;;;;10.40;53.37;99693.53;31108776;28;96828;-62
2023/04/22 22:47:44;;;;;;;45.05;21.58;;;;;;;10.13;54.40;99692.25;31106939;28;96637;-63
2023/04/22 23:02:44;;;;;;;33.80;19.85;;;;;;;9.86;55.30;99693.63;31104838;28;97478;-63
2023/04/22 23:17:44;;;;;;;30.02;19.02;;;;;;;9.69;56.07;99688.44;31104826;28;96594;-63
2023/04/22 23:32:46;;;;;;;32.40;19.10;;;;;;;9.36;56.64;99675.31;31103641;28;97236;-63
2023/04/22 23:47:47;;;;;;;31.17;19.33;;;;;;;9.10;57.88;99663.19;31102035;28;96655;-63
